Time;durP1;ratioP1;P1;durP2;ratioP2;P2;SDS_P1;SDS_P2;PMS_P1;PMS_P2;Temp;Humidity;BMP_temperature;BMP_pressure;BME280_temperature;BME280_humidity;BME280_pressure;Samples;Min_cycle;Max_cycle;Signal;HPM_P1;HPM_P2
2022/05/22 00:00:16;;;;;;;16.02;8.35;;;9.90;99.90;;;;;;4893197;29;20036;-60
2022/05/22 00:02:42;;;;;;;17.00;8.50;;;9.90;99.90;;;;;;4890267;29;20052;-59
2022/05/22 00:05:11;;;;;;;17.73;8.65;;;9.90;99.90;;;;;;4889535;29;20060;-60
2022/05/22 00:07:37;;;;;;;16.23;8.15;;;9.90;99.90;;;;;;4891690;29;20029;-59
2022/05/22 00:10:03;;;;;;;19.10;9.00;;;9.90;99.90;;;;;;4890566;29;20496;-59
2022/05/22 00:12:29;;;;;;;17.77;7.90;;;9.90;99.90;;;;;;4891525;29;20048;-59
2022/05/22 00:14:54;;;;;;;18.92;9.05;;;10.00;99.90;;;;;;4890911;29;20097;-60
2022/05/22 00:17:20;;;;;;;18.40;8.32;;;10.10;99.90;;;;;;4892495;29;20367;-59
2022/05/22 00:19:46;;;;;;;21.77;8.45;;;10.00;99.90;;;;;;4891083;29;20571;-60
2022/05/22 00:22:12;;;;;;;20.17;8.38;;;10.00;99.90;;;;;;4891543;29;20084;-59
2022/05/22 00:24:37;;;;;;;16.38;8.30;;;10.00;99.90;;;;;;4893383;29;20028;-59
2022/05/22 00:27:04;;;;;;;17.70;8.95;;;10.00;99.90;;;;;;4893626;29;20088;-60
2022/05/22 00:29:30;;;;;;;22.05;8.43;;;10.10;99.90;;;;;;4895099;29;20115;-59
2022/05/22 00:31:56;;;;;;;16.90;7.88;;;10.20;99.90;;;;;;4895751;29;20037;-60
2022/05/22 00:34:22;;;;;;;21.63;8.02;;;10.30;99.90;;;;;;4896448;29;20449;-60
2022/05/22 00:36:48;;;;;;;18.58;8.05;;;10.20;99.90;;;;;;4896064;29;20127;-59
2022/05/22 00:39:14;;;;;;;16.73;8.13;;;10.20;99.90;;;;;;4894976;29;20515;-59
2022/05/22 00:41:40;;;;;;;17.15;7.70;;;10.20;99.90;;;;;;4895658;29;20449;-60
2022/05/22 00:44:07;;;;;;;17.85;8.20;;;10.30;99.90;;;;;;4895337;29;20056;-59
2022/05/22 00:46:33;;;;;;;18.08;7.75;;;10.30;99.90;;;;;;4894916;29;20025;-60
2022/05/22 00:49:23;;;;;;;15.98;6.95;;;10.30;99.90;;;;;;4890004;29;20581;-60
2022/05/22 00:52:01;;;;;;;15.23;7.18;;;10.20;99.90;;;;;;4883863;29;20043;-60
2022/05/22 00:54:34;;;;;;;15.20;7.20;;;10.10;99.90;;;;;;4894713;29;20114;-60
2022/05/22 00:57:05;;;;;;;16.17;7.57;;;10.10;99.90;;;;;;4893798;29;20037;-59
2022/05/22 00:59:40;;;;;;;16.77;7.20;;;10.10;99.90;;;;;;4894446;29;20032;-59
2022/05/22 01:02:06;;;;;;;13.68;6.97;;;10.10;99.90;;;;;;4893654;29;20068;-59
2022/05/22 01:04:35;;;;;;;19.30;7.47;;;10.00;99.90;;;;;;4892437;29;20151;-60
2022/05/22 01:07:04;;;;;;;19.52;6.80;;;9.90;99.90;;;;;;4890037;29;20393;-60
2022/05/22 01:09:29;;;;;;;16.83;6.85;;;9.80;99.90;;;;;;4894260;29;20120;-60
2022/05/22 01:12:02;;;;;;;13.50;7.00;;;9.70;99.90;;;;;;4886831;29;20112;-60
2022/05/22 01:14:28;;;;;;;14.88;7.00;;;9.70;99.90;;;;;;4896894;29;20385;-60
2022/05/22 01:16:54;;;;;;;17.35;7.53;;;9.80;99.90;;;;;;4898541;29;20118;-59
2022/05/22 01:19:23;;;;;;;15.82;6.70;;;9.90;99.90;;;;;;4894243;29;20464;-60
2022/05/22 01:22:02;;;;;;;14.70;7.27;;;9.80;99.90;;;;;;4893759;29;20044;-59
2022/05/22 01:24:28;;;;;;;16.98;6.90;;;9.80;99.90;;;;;;4895077;29;20119;-59
2022/05/22 01:26:56;;;;;;;15.57;7.13;;;9.70;99.90;;;;;;4893623;29;20576;-59
2022/05/22 01:29:22;;;;;;;15.85;7.35;;;9.50;99.90;;;;;;4893899;29;20043;-59
2022/05/22 01:31:47;;;;;;;16.50;7.10;;;9.50;99.90;;;;;;4893184;29;20040;-59
2022/05/22 01:34:13;;;;;;;17.02;7.32;;;9.50;99.90;;;;;;4892109;29;20120;-60
2022/05/22 01:36:39;;;;;;;15.05;7.50;;;9.40;99.90;;;;;;4893710;29;20033;-60
2022/05/22 01:39:06;;;;;;;17.25;7.50;;;9.40;99.90;;;;;;4893410;29;20028;-59
2022/05/22 01:41:31;;;;;;;22.23;7.93;;;9.30;99.90;;;;;;4893440;29;20032;-59
2022/05/22 01:43:57;;;;;;;17.05;7.72;;;9.10;99.90;;;;;;4893151;29;20036;-60
2022/05/22 01:46:22;;;;;;;16.58;7.57;;;9.30;99.90;;;;;;4893403;29;20359;-59
2022/05/22 01:48:48;;;;;;;21.17;8.02;;;9.10;99.90;;;;;;4893201;29;20551;-59
2022/05/22 01:51:14;;;;;;;18.40;9.10;;;9.00;99.90;;;;;;4893754;29;20085;-60
2022/05/22 01:53:39;;;;;;;18.10;7.88;;;8.90;99.90;;;;;;4895548;29;20092;-59
2022/05/22 01:56:05;;;;;;;20.08;8.02;;;9.00;99.90;;;;;;4895769;29;20035;-60
2022/05/22 01:58:30;;;;;;;20.02;9.18;;;9.00;99.90;;;;;;4894571;29;20040;-60
2022/05/22 02:00:56;;;;;;;20.33;8.30;;;9.20;99.90;;;;;;4893031;29;20028;-59
2022/05/22 02:03:22;;;;;;;19.92;8.10;;;9.10;99.90;;;;;;4893859;29;20504;-59
2022/05/22 02:05:47;;;;;;;20.00;8.32;;;9.10;99.90;;;;;;4897712;29;20039;-59
2022/05/22 02:08:19;;;;;;;21.70;8.70;;;8.90;99.90;;;;;;4893336;29;20029;-60
2022/05/22 02:10:46;;;;;;;18.35;7.85;;;9.00;99.90;;;;;;4895431;29;20131;-60
2022/05/22 02:13:16;;;;;;;20.45;8.88;;;9.10;99.90;;;;;;4896017;29;20067;-60
2022/05/22 02:15:43;;;;;;;15.90;7.53;;;8.90;99.90;;;;;;4896760;29;20040;-60
2022/05/22 02:18:09;;;;;;;19.63;8.32;;;8.80;99.90;;;;;;4894546;29;20348;-59
2022/05/22 02:20:35;;;;;;;22.83;8.63;;;8.90;99.90;;;;;;4895504;29;20108;-59
2022/05/22 02:23:00;;;;;;;22.13;9.50;;;9.20;99.90;;;;;;4892387;29;20041;-59
2022/05/22 02:25:36;;;;;;;19.55;8.45;;;9.10;99.90;;;;;;4892818;29;20048;-59
2022/05/22 02:28:04;;;;;;;24.48;9.43;;;8.90;99.90;;;;;;4892069;29;20029;-60
2022/05/22 02:30:34;;;;;;;21.02;9.20;;;9.10;99.90;;;;;;4892681;29;20394;-59
2022/05/22 02:33:00;;;;;;;20.13;9.05;;;9.00;99.90;;;;;;4890884;29;20115;-60
2022/05/22 02:35:26;;;;;;;21.25;9.45;;;8.90;99.90;;;;;;4896844;29;20119;-59
2022/05/22 02:37:54;;;;;;;20.83;9.48;;;8.80;99.90;;;;;;4897964;29;20481;-59
2022/05/22 02:40:23;;;;;;;21.10;9.75;;;8.80;99.90;;;;;;4894951;29;20024;-59
2022/05/22 02:42:50;;;;;;;27.23;10.70;;;8.70;99.90;;;;;;4896063;29;20036;-60
2022/05/22 02:45:19;;;;;;;29.05;12.73;;;9.00;99.90;;;;;;4896660;29;20032;-60
2022/05/22 02:47:45;;;;;;;27.85;12.13;;;9.40;99.90;;;;;;4893401;29;20418;-60
2022/05/22 02:50:17;;;;;;;27.75;13.02;;;9.40;99.90;;;;;;4894589;29;20092;-59
2022/05/22 02:52:42;;;;;;;30.38;13.25;;;9.70;99.90;;;;;;4894179;29;20040;-59
2022/05/22 02:55:09;;;;;;;30.45;13.32;;;9.80;99.90;;;;;;4895879;29;20033;-60
2022/05/22 02:57:36;;;;;;;25.85;12.88;;;9.70;99.90;;;;;;4895209;29;20127;-60
2022/05/22 03:00:06;;;;;;;29.23;13.88;;;9.70;99.90;;;;;;4891751;29;20453;-60
2022/05/22 03:02:32;;;;;;;28.13;13.52;;;9.80;99.90;;;;;;4889832;29;20378;-59
2022/05/22 03:04:57;;;;;;;28.05;13.07;;;9.70;99.90;;;;;;4891745;29;20047;-59
2022/05/22 03:07:23;;;;;;;32.88;13.57;;;9.50;99.90;;;;;;4892473;29;20029;-59
2022/05/22 03:09:49;;;;;;;27.08;13.82;;;9.60;99.90;;;;;;4892315;29;20025;-60
2022/05/22 03:12:21;;;;;;;24.88;12.27;;;9.50;99.90;;;;;;4891547;29;20032;-59
2022/05/22 03:14:49;;;;;;;26.17;12.15;;;9.40;99.90;;;;;;4893054;29;20037;-59
2022/05/22 03:17:15;;;;;;;30.67;12.50;;;9.40;99.90;;;;;;4897719;29;20565;-59
2022/05/22 03:19:41;;;;;;;25.20;12.48;;;9.40;99.90;;;;;;4894087;29;20111;-59
2022/05/22 03:22:08;;;;;;;27.98;12.48;;;9.30;99.90;;;;;;4891152;29;20441;-58
2022/05/22 03:24:35;;;;;;;28.92;12.98;;;9.50;99.90;;;;;;4892407;29;20029;-60
2022/05/22 03:27:02;;;;;;;33.97;14.45;;;9.50;99.90;;;;;;4886960;29;20107;-60
2022/05/22 03:29:28;;;;;;;29.20;12.73;;;9.50;99.90;;;;;;4891952;29;20025;-60
2022/05/22 03:31:53;;;;;;;24.60;12.85;;;9.40;99.90;;;;;;4891191;29;20037;-59
2022/05/22 03:34:19;;;;;;;25.83;12.45;;;9.30;99.90;;;;;;4889491;29;20119;-59
2022/05/22 03:36:45;;;;;;;28.95;13.50;;;9.20;99.90;;;;;;4891118;29;20499;-59
2022/05/22 03:39:10;;;;;;;25.23;12.30;;;9.30;99.90;;;;;;4889938;29;20351;-59
2022/05/22 03:41:36;;;;;;;24.35;12.95;;;9.40;99.90;;;;;;4891042;29;20040;-60
2022/05/22 03:44:03;;;;;;;26.20;12.57;;;9.60;99.90;;;;;;4890993;29;20040;-59
2022/05/22 03:46:28;;;;;;;25.10;12.93;;;9.70;99.90;;;;;;4888357;29;20055;-59
2022/05/22 03:48:54;;;;;;;23.23;11.52;;;9.80;99.90;;;;;;4891184;29;20032;-59
2022/05/22 03:51:20;;;;;;;27.00;13.00;;;9.70;99.90;;;;;;4891657;29;20116;-60
2022/05/22 03:53:46;;;;;;;23.20;11.68;;;9.60;99.90;;;;;;4891602;29;20044;-59
2022/05/22 03:56:17;;;;;;;24.83;12.32;;;9.70;99.90;;;;;;4892785;29;20401;-59
2022/05/22 03:58:43;;;;;;;25.73;12.07;;;9.70;99.90;;;;;;4893849;29;20111;-59
2022/05/22 04:01:09;;;;;;;25.67;13.48;;;9.90;99.90;;;;;;4891914;29;20104;-60
2022/05/22 04:03:36;;;;;;;26.50;13.15;;;9.90;99.90;;;;;;4889253;29;20439;-60
2022/05/22 04:06:03;;;;;;;25.27;12.20;;;10.00;99.90;;;;;;4875520;29;20068;-59
2022/05/22 04:08:30;;;;;;;28.77;12.75;;;10.00;99.90;;;;;;4891413;29;20029;-60
2022/05/22 04:10:56;;;;;;;25.48;13.55;;;10.00;99.90;;;;;;4890889;29;20497;-59
2022/05/22 04:13:23;;;;;;;26.70;12.80;;;10.00;99.90;;;;;;4874289;29;20404;-59
2022/05/22 04:15:48;;;;;;;25.17;11.65;;;10.00;99.90;;;;;;4891195;29;20429;-60
2022/05/22 04:18:14;;;;;;;25.08;12.73;;;10.00;99.90;;;;;;4892257;29;20111;-59
2022/05/22 04:20:40;;;;;;;25.27;12.10;;;10.10;99.90;;;;;;4891397;29;20037;-59
2022/05/22 04:25:58;;;;;;;23.85;12.32;;;10.00;99.90;;;;;;4891015;29;20522;-59
2022/05/22 04:28:25;;;;;;;26.95;11.73;;;10.00;99.90;;;;;;4890959;29;20035;-60
2022/05/22 04:30:51;;;;;;;28.95;12.77;;;10.00;99.90;;;;;;4890926;29;20485;-60
2022/05/22 04:33:17;;;;;;;23.08;12.18;;;10.20;99.90;;;;;;4871644;29;20032;-60
2022/05/22 04:35:43;;;;;;;24.63;12.30;;;10.20;99.90;;;;;;4891783;29;20037;-59
2022/05/22 04:38:09;;;;;;;23.98;11.10;;;10.20;99.90;;;;;;4893166;29;20115;-60
2022/05/22 04:40:35;;;;;;;25.85;12.00;;;10.20;99.90;;;;;;4893750;29;20025;-59
2022/05/22 04:43:02;;;;;;;24.83;12.05;;;10.30;99.90;;;;;;4890356;29;20397;-60
2022/05/22 04:45:27;;;;;;;25.75;11.80;;;10.20;99.90;;;;;;4891031;29;20393;-59
2022/05/22 04:47:53;;;;;;;29.30;12.02;;;10.30;99.90;;;;;;4892343;29;20037;-60
2022/05/22 04:50:19;;;;;;;20.95;11.02;;;10.20;99.90;;;;;;4890191;29;20447;-60
2022/05/22 04:52:45;;;;;;;21.83;11.10;;;10.10;99.90;;;;;;4890997;29;20730;-60
2022/05/22 04:55:11;;;;;;;25.70;11.13;;;10.10;99.90;;;;;;4890337;29;20037;-60
2022/05/22 04:57:37;;;;;;;27.00;10.77;;;10.30;99.90;;;;;;4890765;29;20032;-59
2022/05/22 05:00:09;;;;;;;23.85;11.27;;;10.60;99.90;;;;;;4890239;29;20041;-60
2022/05/22 05:02:36;;;;;;;22.73;11.32;;;11.00;99.90;;;;;;4889255;29;20143;-59
2022/05/22 05:05:05;;;;;;;26.73;11.45;;;11.20;99.90;;;;;;4892089;29;20037;-59
2022/05/22 05:07:31;;;;;;;25.83;10.88;;;11.30;99.90;;;;;;4894981;29;20092;-59
2022/05/22 05:09:57;;;;;;;23.52;10.60;;;11.40;99.90;;;;;;4894513;29;20532;-59
2022/05/22 05:12:23;;;;;;;18.00;9.80;;;11.50;99.90;;;;;;4896529;29;20024;-59
2022/05/22 05:14:49;;;;;;;20.63;9.48;;;11.80;99.90;;;;;;4894442;29;20035;-60
2022/05/22 05:17:17;;;;;;;19.00;9.48;;;12.10;99.90;;;;;;4898106;29;20484;-59
2022/05/22 05:19:44;;;;;;;17.55;9.10;;;12.20;99.90;;;;;;4899904;29;20112;-59
2022/05/22 05:22:10;;;;;;;19.50;8.50;;;12.20;99.90;;;;;;4897616;29;20037;-60
2022/05/22 05:24:36;;;;;;;17.95;8.65;;;12.20;99.90;;;;;;4896484;29;20514;-60
2022/05/22 05:27:02;;;;;;;20.48;9.25;;;12.20;99.90;;;;;;4898003;29;20029;-59
2022/05/22 05:29:28;;;;;;;18.77;9.07;;;12.20;99.90;;;;;;4897906;29;20017;-59
2022/05/22 05:31:54;;;;;;;17.45;9.02;;;12.20;99.90;;;;;;4895043;29;20441;-59
2022/05/22 05:34:20;;;;;;;18.77;9.07;;;12.50;99.90;;;;;;4893777;29;20119;-59
2022/05/22 05:36:46;;;;;;;17.88;9.70;;;12.60;99.90;;;;;;4897084;29;20074;-59
2022/05/22 05:39:12;;;;;;;17.30;8.82;;;12.60;99.90;;;;;;4896311;29;20039;-60
2022/05/22 05:41:38;;;;;;;21.50;9.05;;;12.50;99.90;;;;;;4896180;29;20044;-60
2022/05/22 05:44:08;;;;;;;18.73;9.50;;;12.60;99.90;;;;;;4894102;29;20036;-60
2022/05/22 05:46:37;;;;;;;;;;;12.40;99.90;;;;;;4893200;29;20103;-60
2022/05/22 05:49:03;;;;;;;19.92;8.68;;;12.50;99.90;;;;;;4896954;29;20328;-60
2022/05/22 05:51:29;;;;;;;17.05;9.02;;;12.60;99.90;;;;;;4896261;29;20096;-60
2022/05/22 05:53:55;;;;;;;16.27;8.80;;;12.60;99.90;;;;;;4895023;29;20025;-59
2022/05/22 05:56:21;;;;;;;19.20;9.77;;;12.50;99.90;;;;;;4893052;29;20031;-59
2022/05/22 05:58:47;;;;;;;22.65;9.98;;;12.50;99.90;;;;;;4867936;29;20039;-59
2022/05/22 06:01:14;;;;;;;18.30;9.18;;;12.90;99.90;;;;;;4893157;29;20040;-60
2022/05/22 06:03:39;;;;;;;18.40;8.55;;;13.30;99.90;;;;;;4891244;29;20144;-59
2022/05/22 06:06:09;;;;;;;19.52;8.77;;;13.60;99.90;;;;;;4893618;29;20113;-60
2022/05/22 06:08:35;;;;;;;17.90;8.90;;;14.00;99.90;;;;;;4896469;29;20021;-60
2022/05/22 06:11:01;;;;;;;18.25;8.02;;;14.20;99.90;;;;;;4895217;29;20483;-60
2022/05/22 06:13:26;;;;;;;15.23;7.80;;;14.30;99.90;;;;;;4893257;29;20119;-61
2022/05/22 06:15:52;;;;;;;21.85;8.38;;;14.70;99.90;;;;;;4893660;29;20123;-59
2022/05/22 06:18:21;;;;;;;17.80;8.20;;;14.40;99.90;;;;;;4896114;29;20037;-60
2022/05/22 06:20:47;;;;;;;19.00;7.72;;;14.60;99.90;;;;;;4892565;29;20032;-59
2022/05/22 06:23:13;;;;;;;18.25;8.60;;;14.40;99.90;;;;;;4883139;29;20088;-59
2022/05/22 06:25:44;;;;;;;15.30;7.75;;;13.80;99.90;;;;;;4892704;29;20495;-61
2022/05/22 06:28:17;;;;;;;15.40;7.60;;;13.40;99.90;;;;;;4892418;29;20028;-60
2022/05/22 06:30:43;;;;;;;13.73;7.22;;;13.60;99.90;;;;;;4890876;29;20476;-59
2022/05/22 06:33:11;;;;;;;14.25;7.40;;;14.30;99.90;;;;;;4890320;29;20032;-59
2022/05/22 06:35:43;;;;;;;16.90;8.05;;;14.70;99.90;;;;;;4892853;29;20382;-59
2022/05/22 06:39:49;;;;;;;15.63;7.40;;;14.50;99.90;;;;;;4891970;29;20040;-59
2022/05/22 06:40:56;;;;;;;16.63;7.80;;;14.40;99.90;;;;;;4892161;29;20039;-60
2022/05/22 06:43:21;;;;;;;19.80;8.38;;;14.40;99.90;;;;;;4892153;29;20108;-60
2022/05/22 06:45:50;;;;;;;17.27;7.85;;;14.40;99.90;;;;;;4892665;29;20060;-59
2022/05/22 06:48:17;;;;;;;16.50;7.55;;;14.30;99.90;;;;;;4891234;29;20504;-59
2022/05/22 06:50:43;;;;;;;16.50;7.85;;;14.60;99.90;;;;;;4895234;29;20447;-60
2022/05/22 06:53:09;;;;;;;16.88;7.47;;;15.00;99.90;;;;;;4892362;29;20029;-60
2022/05/22 06:55:35;;;;;;;21.92;8.45;;;14.90;99.90;;;;;;4892097;29;20067;-60
2022/05/22 06:58:00;;;;;;;20.17;7.65;;;14.90;99.90;;;;;;4894048;29;20084;-59
2022/05/22 07:00:27;;;;;;;16.67;7.75;;;14.80;99.90;;;;;;4892082;29;20524;-59
2022/05/22 07:02:53;;;;;;;14.43;7.50;;;14.80;99.90;;;;;;4886418;29;20060;-60
2022/05/22 07:05:20;;;;;;;15.57;7.70;;;14.80;99.90;;;;;;4891661;29;20409;-60
2022/05/22 07:07:46;;;;;;;16.77;7.38;;;15.00;99.90;;;;;;4891975;29;20132;-59
2022/05/22 07:10:12;;;;;;;17.88;7.60;;;15.20;99.90;;;;;;4891653;29;20139;-60
2022/05/22 07:12:38;;;;;;;16.23;6.55;;;15.40;99.90;;;;;;4892053;29;20035;-59
2022/05/22 07:15:04;;;;;;;15.65;7.53;;;15.80;99.90;;;;;;4891973;29;20120;-60
2022/05/22 07:17:30;;;;;;;15.07;7.25;;;16.00;99.90;;;;;;4891068;29;20059;-59
2022/05/22 07:19:56;;;;;;;17.55;6.75;;;16.20;99.90;;;;;;4891879;29;20037;-59
2022/05/22 07:22:23;;;;;;;14.05;6.38;;;16.20;99.90;;;;;;4891303;29;20427;-59
2022/05/22 07:24:49;;;;;;;14.13;6.57;;;16.50;99.90;;;;;;4891551;29;20061;-60
2022/05/22 07:27:15;;;;;;;16.33;6.13;;;15.90;99.90;;;;;;4891908;29;20029;-59
2022/05/22 07:29:41;;;;;;;15.18;6.20;;;15.80;99.90;;;;;;4894682;29;20032;-59
2022/05/22 07:32:08;;;;;;;15.68;6.72;;;16.10;99.90;;;;;;4893795;29;20533;-60
2022/05/22 07:34:34;;;;;;;12.15;6.15;;;16.00;99.90;;;;;;4889769;29;20036;-60
2022/05/22 07:37:06;;;;;;;15.18;6.05;;;16.20;99.90;;;;;;4892088;29;20499;-60
2022/05/22 07:39:32;;;;;;;12.98;6.63;;;16.40;99.90;;;;;;4889961;29;20033;-60
2022/05/22 07:41:57;;;;;;;14.00;5.78;;;16.30;99.90;;;;;;4891752;29;20040;-59
2022/05/22 07:44:23;;;;;;;19.20;6.65;;;16.30;99.90;;;;;;4891202;29;20059;-60
2022/05/22 07:46:49;;;;;;;15.55;6.38;;;16.50;99.90;;;;;;4891490;29;20050;-59
2022/05/22 07:52:05;;;;;;;14.32;6.05;;;16.50;99.90;;;;;;4889626;29;20404;-59
2022/05/22 07:54:36;;;;;;;14.00;6.78;;;16.50;99.90;;;;;;4890930;29;20035;-60
2022/05/22 07:57:02;;;;;;;14.43;6.57;;;16.70;99.90;;;;;;4888103;29;20068;-60
2022/05/22 07:59:29;;;;;;;17.52;6.60;;;16.70;99.90;;;;;;4890897;29;20029;-60
2022/05/22 08:01:55;;;;;;;14.07;5.85;;;16.60;99.90;;;;;;4891247;29;20032;-59
2022/05/22 08:04:20;;;;;;;15.38;6.03;;;16.90;99.90;;;;;;4890403;29;20464;-59
2022/05/22 08:06:46;;;;;;;12.68;5.30;;;17.20;99.90;;;;;;4893652;29;20575;-59
2022/05/22 08:09:11;;;;;;;15.35;5.95;;;17.50;99.90;;;;;;4894609;29;20048;-60
2022/05/22 08:11:37;;;;;;;13.10;5.00;;;17.90;99.90;;;;;;4897337;29;20392;-60
2022/05/22 08:14:03;;;;;;;10.40;5.00;;;17.90;99.90;;;;;;4895779;29;20024;-60
2022/05/22 08:16:29;;;;;;;15.43;5.25;;;17.60;99.90;;;;;;4891056;29;20429;-60
2022/05/22 08:18:54;;;;;;;12.32;5.57;;;18.40;99.90;;;;;;4898474;29;20527;-59
2022/05/22 08:21:20;;;;;;;13.40;4.25;;;18.60;99.90;;;;;;4895248;29;20068;-59
2022/05/22 08:23:45;;;;;;;9.98;4.60;;;18.30;99.90;;;;;;4894165;29;20044;-60
2022/05/22 08:26:11;;;;;;;9.98;4.05;;;18.30;99.90;;;;;;4893524;29;20441;-60
2022/05/22 08:28:36;;;;;;;10.85;4.57;;;18.50;99.90;;;;;;4883071;29;20358;-61
2022/05/22 08:31:05;;;;;;;10.57;4.55;;;18.80;99.90;;;;;;4895201;29;20032;-60
2022/05/22 08:33:30;;;;;;;13.77;4.65;;;19.50;99.90;;;;;;4890801;29;20406;-59
2022/05/22 08:35:56;;;;;;;13.93;4.50;;;20.00;99.90;;;;;;4896258;29;20107;-60
2022/05/22 08:38:21;;;;;;;12.15;4.25;;;19.60;99.90;;;;;;4892673;29;20032;-61
2022/05/22 08:41:09;;;;;;;12.18;3.83;;;20.80;99.90;;;;;;4894392;29;20572;-60
2022/05/22 08:43:35;;;;;;;12.93;3.63;;;20.30;99.90;;;;;;4892933;29;20040;-61
2022/05/22 08:46:13;;;;;;;10.48;3.42;;;20.50;99.90;;;;;;4894513;29;20355;-60
2022/05/22 08:48:48;;;;;;;9.93;3.47;;;20.10;99.90;;;;;;4895718;29;20024;-59
2022/05/22 08:51:18;;;;;;;10.73;3.50;;;20.30;99.90;;;;;;4894108;29;20034;-60
2022/05/22 08:53:48;;;;;;;;;;;20.70;98.90;;;;;;4897351;29;20028;-60
2022/05/22 08:59:32;;;;;;;15.33;4.30;;;19.50;99.90;;;;;;4892735;29;20143;-59
2022/05/22 09:02:16;;;;;;;11.43;3.58;;;20.30;99.90;;;;;;4894967;29;20040;-59
2022/05/22 09:04:51;;;;;;;9.10;3.70;;;21.50;98.00;;;;;;4874177;29;20076;-61
2022/05/22 09:07:20;;;;;;;10.40;4.10;;;21.80;96.50;;;;;;4875271;29;20048;-60
2022/05/22 09:09:58;;;;;;;9.23;3.53;;;22.80;93.60;;;;;;4875503;29;20053;-60
2022/05/22 09:13:20;;;;;;;9.85;3.97;;;22.40;93.30;;;;;;4875038;29;20033;-60
2022/05/22 09:15:49;;;;;;;12.13;3.97;;;21.00;95.20;;;;;;4799402;29;20523;-61
2022/05/22 09:18:23;;;;;;;;;;;21.20;95.50;;;;;;4862720;29;20041;-60
2022/05/22 09:21:14;;;;;;;11.90;3.90;;;21.80;95.50;;;;;;4875834;29;19911;-61
2022/05/22 09:23:59;;;;;;;8.68;3.78;;;21.40;97.00;;;;;;4873997;29;20033;-61
2022/05/22 09:26:42;;;;;;;11.65;4.45;;;22.60;94.30;;;;;;4871935;29;20064;-61
2022/05/22 09:29:25;;;;;;;13.93;4.57;;;22.10;95.50;;;;;;4873079;29;20025;-60
2022/05/22 09:32:11;;;;;;;13.95;5.15;;;21.60;95.20;;;;;;4878232;29;20036;-61
2022/05/22 09:34:55;;;;;;;12.80;4.78;;;22.20;95.80;;;;;;4873884;29;20045;-60
2022/05/22 09:37:48;;;;;;;10.32;3.80;;;22.00;95.60;;;;;;4872719;29;20389;-60
2022/05/22 09:40:32;;;;;;;13.10;4.30;;;22.60;96.80;;;;;;4874612;29;20493;-60
2022/05/22 09:43:11;;;;;;;11.02;4.30;;;22.50;96.60;;;;;;4872019;29;20056;-60
2022/05/22 09:46:00;;;;;;;10.53;4.00;;;23.80;93.50;;;;;;4874460;29;20033;-59
2022/05/22 09:48:50;;;;;;;11.85;4.25;;;22.90;94.50;;;;;;4873403;29;20812;-60
2022/05/22 09:51:34;;;;;;;10.88;4.57;;;23.70;94.10;;;;;;4873643;29;20033;-60
2022/05/22 09:54:24;;;;;;;12.38;3.60;;;24.00;93.40;;;;;;4874451;29;20029;-60
2022/05/22 09:57:18;;;;;;;13.48;4.47;;;24.90;92.60;;;;;;4871188;29;20489;-60
2022/05/22 10:00:03;;;;;;;13.43;4.65;;;23.40;90.70;;;;;;4873128;29;20085;-60
2022/05/22 10:02:53;;;;;;;10.07;4.18;;;23.30;91.00;;;;;;4874567;29;20575;-60
2022/05/22 10:05:19;;;;;;;;;;;24.20;91.90;;;;;;4893176;29;20036;-60
2022/05/22 10:08:09;;;;;;;16.58;4.22;;;22.70;92.30;;;;;;4896311;29;20315;-60
2022/05/22 10:11:10;;;;;;;10.95;4.45;;;23.50;93.90;;;;;;4894368;29;20028;-60
2022/05/22 10:13:57;;;;;;;10.80;4.50;;;23.90;91.70;;;;;;4896812;29;20256;-60
2022/05/22 10:16:43;;;;;;;11.95;4.18;;;23.30;91.70;;;;;;4893949;29;20028;-60
2022/05/22 10:19:27;;;;;;;13.02;4.90;;;24.40;87.90;;;;;;4894058;29;20063;-60
2022/05/22 10:22:04;;;;;;;12.32;4.60;;;23.70;90.10;;;;;;4893718;29;20111;-60
2022/05/22 10:24:59;;;;;;;11.52;4.65;;;23.80;91.20;;;;;;4893621;29;20021;-60
2022/05/22 10:27:40;;;;;;;11.40;4.90;;;23.40;91.50;;;;;;4859860;29;20541;-60
2022/05/22 10:30:11;;;;;;;12.80;5.50;;;23.00;89.60;;;;;;4891591;29;20028;-60
2022/05/22 10:32:39;;;;;;;14.90;5.00;;;22.90;90.10;;;;;;4890378;29;20043;-60
2022/05/22 10:35:26;;;;;;;12.18;4.50;;;24.60;88.10;;;;;;4892283;29;20032;-60
2022/05/22 10:38:04;;;;;;;11.88;4.45;;;24.80;86.50;;;;;;4893660;29;20548;-60
2022/05/22 10:42:44;;;;;;;11.38;4.40;;;25.60;84.30;;;;;;4892462;29;20048;-60
2022/05/22 10:43:15;;;;;;;10.15;4.65;;;25.20;82.50;;;;;;4889164;29;20060;-59
2022/05/22 10:45:41;;;;;;;11.70;5.45;;;22.40;90.50;;;;;;4892872;29;20128;-60
2022/05/22 10:48:09;;;;;;;15.73;5.60;;;21.20;91.60;;;;;;4892678;29;20033;-60
2022/05/22 10:50:35;;;;;;;14.50;6.03;;;20.80;92.40;;;;;;4893156;29;20024;-60
2022/05/22 10:53:01;;;;;;;11.43;4.70;;;21.30;93.10;;;;;;4895445;29;20421;-61
2022/05/22 10:55:39;;;;;;;13.75;4.60;;;21.90;94.60;;;;;;4894136;29;20028;-61
2022/05/22 10:58:18;;;;;;;13.10;4.80;;;23.00;91.00;;;;;;4892427;29;20065;-60
2022/05/22 11:00:56;;;;;;;13.93;4.95;;;22.70;91.50;;;;;;4889878;29;20028;-60
2022/05/22 11:03:26;;;;;;;15.75;4.60;;;24.40;89.80;;;;;;4890105;29;20080;-60
2022/05/22 11:05:52;;;;;;;15.27;4.18;;;24.90;87.10;;;;;;4892013;29;20068;-60
2022/05/22 11:08:28;;;;;;;12.73;4.43;;;25.20;85.90;;;;;;4887653;29;20094;-60
2022/05/22 11:10:55;;;;;;;12.25;3.75;;;26.10;84.30;;;;;;4891926;29;20035;-60
2022/05/22 11:13:25;;;;;;;15.70;4.25;;;26.50;84.10;;;;;;4891519;29;20057;-60
2022/05/22 11:15:51;;;;;;;;;;;28.20;78.60;;;;;;4892476;29;20493;-61
2022/05/22 11:18:27;;;;;;;13.60;4.05;;;27.90;76.20;;;;;;4893495;29;19915;-60
2022/05/22 11:21:03;;;;;;;11.25;4.03;;;27.10;77.10;;;;;;4892022;29;20033;-62
2022/05/22 11:23:36;;;;;;;14.98;5.05;;;26.00;74.90;;;;;;4888402;29;20639;-60
2022/05/22 11:26:08;;;;;;;12.25;4.38;;;25.60;76.00;;;;;;4891863;29;20064;-60
2022/05/22 11:28:54;;;;;;;10.85;3.63;;;24.90;82.60;;;;;;4874465;29;20032;-60
2022/05/22 11:31:30;;;;;;;11.63;4.38;;;27.80;77.30;;;;;;4891049;29;20025;-61
2022/05/22 11:34:17;;;;;;;9.82;3.70;;;29.30;71.80;;;;;;4889502;29;20393;-60
2022/05/22 11:37:04;;;;;;;10.10;4.13;;;28.40;73.20;;;;;;4893445;29;20312;-61
2022/05/22 11:39:48;;;;;;;11.63;4.50;;;28.20;71.40;;;;;;4891327;29;20037;-60
2022/05/22 11:42:34;;;;;;;13.15;3.95;;;29.20;69.40;;;;;;4892849;29;20052;-60
2022/05/22 11:45:17;;;;;;;9.32;3.38;;;29.30;69.80;;;;;;4889183;29;20393;-61
2022/05/22 11:48:03;;;;;;;10.13;3.90;;;28.10;70.70;;;;;;4888490;29;20057;-61
2022/05/22 11:50:48;;;;;;;10.73;4.10;;;27.70;72.80;;;;;;4891039;29;20033;-60
2022/05/22 11:53:35;;;;;;;11.40;4.18;;;27.70;73.80;;;;;;4891571;29;20028;-60
2022/05/22 11:56:21;;;;;;;10.65;3.78;;;29.00;68.40;;;;;;4891524;29;20069;-60
2022/05/22 11:59:07;;;;;;;11.57;4.38;;;28.70;73.40;;;;;;4889096;29;20033;-60
2022/05/22 12:01:51;;;;;;;10.60;4.00;;;29.60;70.30;;;;;;4887983;29;20052;-61
2022/05/22 12:04:29;;;;;;;10.43;4.18;;;30.40;67.40;;;;;;4889309;29;20056;-60
2022/05/22 12:07:32;;;;;;;11.52;4.20;;;28.10;70.30;;;;;;4891693;29;20433;-61
2022/05/22 12:10:05;;;;;;;11.82;4.20;;;28.50;70.40;;;;;;4891250;29;20437;-60
2022/05/22 12:12:52;;;;;;;11.00;4.10;;;27.20;69.60;;;;;;4892207;29;20020;-61
2022/05/22 12:15:27;;;;;;;12.45;4.57;;;26.40;72.80;;;;;;4891492;29;20123;-61
2022/05/22 12:18:18;;;;;;;12.02;4.20;;;28.50;70.90;;;;;;4892231;29;20060;-60
2022/05/22 12:20:47;;;;;;;11.93;4.60;;;26.40;72.60;;;;;;4888678;29;20061;-60
2022/05/22 12:23:15;;;;;;;10.52;3.67;;;26.80;73.00;;;;;;4892921;29;20039;-61
2022/05/22 12:25:45;;;;;;;11.40;4.40;;;29.90;69.90;;;;;;4887350;29;20044;-60
2022/05/22 12:28:38;;;;;;;10.45;4.40;;;29.00;68.10;;;;;;4890836;29;20025;-60
2022/05/22 12:31:13;;;;;;;12.27;3.88;;;25.90;72.30;;;;;;4883531;29;20041;-61
2022/05/22 12:33:39;;;;;;;9.05;3.50;;;27.60;73.40;;;;;;4889007;29;20099;-61
2022/05/22 12:36:06;;;;;;;11.57;3.85;;;29.00;71.10;;;;;;4891161;29;20040;-60
2022/05/22 12:38:38;;;;;;;10.20;3.88;;;27.30;72.40;;;;;;4890642;29;20111;-61
2022/05/22 12:41:14;;;;;;;11.45;3.63;;;29.40;68.70;;;;;;4891276;29;20111;-60
2022/05/22 12:43:40;;;;;;;11.77;4.00;;;29.80;67.20;;;;;;4890241;29;20485;-60
2022/05/22 12:46:09;;;;;;;10.38;3.28;;;30.10;68.00;;;;;;4891105;29;20037;-60
2022/05/22 12:48:43;;;;;;;11.57;4.00;;;30.10;68.50;;;;;;4890361;29;20036;-60
2022/05/22 12:51:33;;;;;;;9.95;3.72;;;28.70;66.60;;;;;;4891070;29;20472;-60
2022/05/22 12:54:21;;;;;;;11.00;3.67;;;29.20;66.00;;;;;;4882074;29;20045;-60
2022/05/22 12:56:48;;;;;;;12.13;4.07;;;28.20;66.80;;;;;;4890366;29;20075;-61
2022/05/22 12:59:25;;;;;;;10.32;3.80;;;29.50;65.00;;;;;;4890920;29;20052;-61
2022/05/22 13:02:01;;;;;;;9.15;3.65;;;29.10;66.60;;;;;;4888380;29;20028;-60
2022/05/22 13:04:37;;;;;;;12.65;3.90;;;27.10;68.40;;;;;;4889932;29;20060;-60